sensor_id;sensor_type;location;lat;lon;timestamp;P1;durP1;ratioP1;P2;durP2;ratioP2
12556;SDS011;6344;49.932;8.308;2022-11-23T00:01:10;7.83;;;5.40;;
12556;SDS011;6344;49.932;8.308;2022-11-23T00:03:44;7.73;;;4.87;;
12556;SDS011;6344;49.932;8.308;2022-11-23T00:06:16;7.67;;;5.00;;
12556;SDS011;6344;49.932;8.308;2022-11-23T00:08:44;10.43;;;5.07;;
12556;SDS011;6344;49.932;8.308;2022-11-23T00:11:16;5.50;;;4.70;;
12556;SDS011;6344;49.932;8.308;2022-11-23T00:13:49;10.13;;;4.57;;
12556;SDS011;6344;49.932;8.308;2022-11-23T00:16:17;6.20;;;3.93;;
12556;SDS011;6344;49.932;8.308;2022-11-23T00:18:51;8.33;;;4.83;;
12556;SDS011;6344;49.932;8.308;2022-11-23T00:21:20;5.83;;;4.53;;
12556;SDS011;6344;49.932;8.308;2022-11-23T00:23:48;7.60;;;4.67;;
12556;SDS011;6344;49.932;8.308;2022-11-23T00:26:17;5.03;;;3.90;;
12556;SDS011;6344;49.932;8.308;2022-11-23T00:28:53;5.43;;;4.83;;
12556;SDS011;6344;49.932;8.308;2022-11-23T00:31:24;9.37;;;4.90;;
12556;SDS011;6344;49.932;8.308;2022-11-23T00:33:56;7.00;;;4.17;;
12556;SDS011;6344;49.932;8.308;2022-11-23T00:36:25;14.03;;;4.90;;
12556;SDS011;6344;49.932;8.308;2022-11-23T00:38:55;8.17;;;4.37;;
12556;SDS011;6344;49.932;8.308;2022-11-23T00:41:24;10.23;;;4.10;;
12556;SDS011;6344;49.932;8.308;2022-11-23T00:43:55;5.07;;;4.10;;
12556;SDS011;6344;49.932;8.308;2022-11-23T00:46:23;9.10;;;4.27;;
12556;SDS011;6344;49.932;8.308;2022-11-23T00:48:52;5.50;;;4.30;;
12556;SDS011;6344;49.932;8.308;2022-11-23T00:51:20;11.00;;;4.87;;
12556;SDS011;6344;49.932;8.308;2022-11-23T00:53:50;5.67;;;4.40;;
12556;SDS011;6344;49.932;8.308;2022-11-23T00:56:18;7.30;;;4.63;;
12556;SDS011;6344;49.932;8.308;2022-11-23T00:58:47;5.00;;;4.50;;
12556;SDS011;6344;49.932;8.308;2022-11-23T01:01:16;5.33;;;3.40;;
12556;SDS011;6344;49.932;8.308;2022-11-23T01:03:51;7.17;;;3.80;;
12556;SDS011;6344;49.932;8.308;2022-11-23T01:06:20;6.63;;;4.00;;
12556;SDS011;6344;49.932;8.308;2022-11-23T01:08:49;5.80;;;3.63;;
12556;SDS011;6344;49.932;8.308;2022-11-23T01:11:22;8.60;;;3.10;;
12556;SDS011;6344;49.932;8.308;2022-11-23T01:13:50;5.83;;;3.93;;
12556;SDS011;6344;49.932;8.308;2022-11-23T01:16:19;5.47;;;3.70;;
12556;SDS011;6344;49.932;8.308;2022-11-23T01:18:50;7.77;;;4.10;;
12556;SDS011;6344;49.932;8.308;2022-11-23T01:21:19;8.10;;;3.50;;
12556;SDS011;6344;49.932;8.308;2022-11-23T01:23:46;8.33;;;4.17;;
12556;SDS011;6344;49.932;8.308;2022-11-23T01:26:16;7.27;;;4.23;;
12556;SDS011;6344;49.932;8.308;2022-11-23T01:28:45;5.57;;;3.70;;
12556;SDS011;6344;49.932;8.308;2022-11-23T01:31:13;4.80;;;3.87;;
12556;SDS011;6344;49.932;8.308;2022-11-23T01:33:49;6.37;;;4.20;;
12556;SDS011;6344;49.932;8.308;2022-11-23T01:36:18;5.70;;;4.50;;
12556;SDS011;6344;49.932;8.308;2022-11-23T01:38:49;7.50;;;4.40;;
12556;SDS011;6344;49.932;8.308;2022-11-23T01:41:23;7.50;;;3.80;;
12556;SDS011;6344;49.932;8.308;2022-11-23T01:43:54;6.80;;;3.73;;
12556;SDS011;6344;49.932;8.308;2022-11-23T01:46:23;9.83;;;3.83;;
12556;SDS011;6344;49.932;8.308;2022-11-23T01:48:59;6.63;;;3.60;;
12556;SDS011;6344;49.932;8.308;2022-11-23T01:51:30;5.23;;;4.47;;
12556;SDS011;6344;49.932;8.308;2022-11-23T01:54:00;6.83;;;4.60;;
12556;SDS011;6344;49.932;8.308;2022-11-23T01:56:31;7.07;;;4.00;;
12556;SDS011;6344;49.932;8.308;2022-11-23T01:59:03;7.73;;;3.70;;
12556;SDS011;6344;49.932;8.308;2022-11-23T02:01:39;6.10;;;4.93;;
12556;SDS011;6344;49.932;8.308;2022-11-23T02:04:10;10.23;;;4.30;;
12556;SDS011;6344;49.932;8.308;2022-11-23T02:06:42;6.27;;;4.10;;
12556;SDS011;6344;49.932;8.308;2022-11-23T02:09:11;9.23;;;4.60;;
12556;SDS011;6344;49.932;8.308;2022-11-23T02:11:40;6.17;;;4.40;;
12556;SDS011;6344;49.932;8.308;2022-11-23T02:14:06;5.57;;;4.53;;
12556;SDS011;6344;49.932;8.308;2022-11-23T02:16:38;8.20;;;4.57;;
12556;SDS011;6344;49.932;8.308;2022-11-23T02:19:05;9.67;;;4.00;;
12556;SDS011;6344;49.932;8.308;2022-11-23T02:21:40;4.83;;;3.57;;
12556;SDS011;6344;49.932;8.308;2022-11-23T02:24:09;7.20;;;4.10;;
12556;SDS011;6344;49.932;8.308;2022-11-23T02:26:47;3.83;;;3.30;;
12556;SDS011;6344;49.932;8.308;2022-11-23T02:29:15;7.03;;;4.37;;
12556;SDS011;6344;49.932;8.308;2022-11-23T02:31:49;10.07;;;4.53;;
12556;SDS011;6344;49.932;8.308;2022-11-23T02:34:18;9.10;;;4.83;;
12556;SDS011;6344;49.932;8.308;2022-11-23T02:36:48;5.53;;;4.00;;
12556;SDS011;6344;49.932;8.308;2022-11-23T02:39:17;7.33;;;4.20;;
12556;SDS011;6344;49.932;8.308;2022-11-23T02:41:52;8.33;;;4.83;;
12556;SDS011;6344;49.932;8.308;2022-11-23T02:44:25;7.70;;;4.57;;
12556;SDS011;6344;49.932;8.308;2022-11-23T02:47:03;9.30;;;4.17;;
12556;SDS011;6344;49.932;8.308;2022-11-23T02:49:35;4.90;;;3.57;;
12556;SDS011;6344;49.932;8.308;2022-11-23T02:52:05;10.53;;;4.97;;
12556;SDS011;6344;49.932;8.308;2022-11-23T02:54:33;8.80;;;4.87;;
12556;SDS011;6344;49.932;8.308;2022-11-23T02:57:05;5.67;;;3.60;;
12556;SDS011;6344;49.932;8.308;2022-11-23T02:59:33;5.03;;;4.10;;
12556;SDS011;6344;49.932;8.308;2022-11-23T03:02:00;14.87;;;4.13;;
12556;SDS011;6344;49.932;8.308;2022-11-23T03:04:29;9.20;;;4.40;;
12556;SDS011;6344;49.932;8.308;2022-11-23T03:06:55;3.97;;;3.40;;
12556;SDS011;6344;49.932;8.308;2022-11-23T03:09:25;8.93;;;4.40;;
12556;SDS011;6344;49.932;8.308;2022-11-23T03:11:52;4.90;;;3.80;;
12556;SDS011;6344;49.932;8.308;2022-11-23T03:14:24;8.67;;;5.30;;
12556;SDS011;6344;49.932;8.308;2022-11-23T03:16:55;7.07;;;5.30;;
12556;SDS011;6344;49.932;8.308;2022-11-23T03:19:21;6.33;;;4.00;;
12556;SDS011;6344;49.932;8.308;2022-11-23T03:21:52;8.30;;;5.03;;
12556;SDS011;6344;49.932;8.308;2022-11-23T03:24:18;5.63;;;4.00;;
12556;SDS011;6344;49.932;8.308;2022-11-23T03:26:45;7.77;;;4.33;;
12556;SDS011;6344;49.932;8.308;2022-11-23T03:29:14;6.07;;;4.00;;
12556;SDS011;6344;49.932;8.308;2022-11-23T03:31:42;11.17;;;4.20;;
12556;SDS011;6344;49.932;8.308;2022-11-23T03:34:09;5.50;;;4.03;;
12556;SDS011;6344;49.932;8.308;2022-11-23T03:36:37;9.80;;;4.57;;
12556;SDS011;6344;49.932;8.308;2022-11-23T03:39:05;8.87;;;4.40;;
12556;SDS011;6344;49.932;8.308;2022-11-23T03:41:32;9.43;;;4.40;;
12556;SDS011;6344;49.932;8.308;2022-11-23T03:44:03;9.87;;;4.70;;
12556;SDS011;6344;49.932;8.308;2022-11-23T03:46:30;9.90;;;5.37;;
12556;SDS011;6344;49.932;8.308;2022-11-23T03:49:08;7.60;;;4.40;;
12556;SDS011;6344;49.932;8.308;2022-11-23T03:51:36;9.10;;;4.20;;
12556;SDS011;6344;49.932;8.308;2022-11-23T03:54:03;9.00;;;4.87;;
12556;SDS011;6344;49.932;8.308;2022-11-23T03:56:33;8.17;;;4.13;;
12556;SDS011;6344;49.932;8.308;2022-11-23T03:59:05;7.10;;;3.27;;
12556;SDS011;6344;49.932;8.308;2022-11-23T04:01:32;7.33;;;4.47;;
12556;SDS011;6344;49.932;8.308;2022-11-23T04:03:58;9.23;;;4.53;;
12556;SDS011;6344;49.932;8.308;2022-11-23T04:06:26;6.80;;;4.50;;
12556;SDS011;6344;49.932;8.308;2022-11-23T04:12:29;10.63;;;5.27;;
12556;SDS011;6344;49.932;8.308;2022-11-23T04:15:03;7.57;;;4.60;;
12556;SDS011;6344;49.932;8.308;2022-11-23T04:17:31;6.47;;;4.67;;
12556;SDS011;6344;49.932;8.308;2022-11-23T04:19:59;10.27;;;4.53;;
12556;SDS011;6344;49.932;8.308;2022-11-23T04:22:29;12.93;;;5.30;;
12556;SDS011;6344;49.932;8.308;2022-11-23T04:25:03;6.30;;;4.63;;
12556;SDS011;6344;49.932;8.308;2022-11-23T04:27:30;11.13;;;4.60;;
12556;SDS011;6344;49.932;8.308;2022-11-23T04:30:03;4.63;;;3.57;;
12556;SDS011;6344;49.932;8.308;2022-11-23T04:32:32;8.73;;;4.37;;
12556;SDS011;6344;49.932;8.308;2022-11-23T04:35:02;8.27;;;4.70;;
12556;SDS011;6344;49.932;8.308;2022-11-23T04:37:33;6.63;;;5.77;;
12556;SDS011;6344;49.932;8.308;2022-11-23T04:39:59;9.40;;;4.40;;
12556;SDS011;6344;49.932;8.308;2022-11-23T04:42:28;11.30;;;5.57;;
12556;SDS011;6344;49.932;8.308;2022-11-23T04:44:58;9.07;;;5.30;;
12556;SDS011;6344;49.932;8.308;2022-11-23T04:47:37;6.17;;;4.73;;
12556;SDS011;6344;49.932;8.308;2022-11-23T04:50:05;8.00;;;4.10;;
12556;SDS011;6344;49.932;8.308;2022-11-23T04:52:35;11.17;;;5.03;;
12556;SDS011;6344;49.932;8.308;2022-11-23T04:55:04;7.43;;;4.80;;
12556;SDS011;6344;49.932;8.308;2022-11-23T04:57:35;9.00;;;5.07;;
12556;SDS011;6344;49.932;8.308;2022-11-23T05:00:09;7.00;;;4.80;;
12556;SDS011;6344;49.932;8.308;2022-11-23T05:02:36;9.87;;;5.33;;
12556;SDS011;6344;49.932;8.308;2022-11-23T05:05:07;13.07;;;5.10;;
12556;SDS011;6344;49.932;8.308;2022-11-23T05:07:37;7.63;;;5.63;;
12556;SDS011;6344;49.932;8.308;2022-11-23T05:10:06;10.10;;;5.67;;
12556;SDS011;6344;49.932;8.308;2022-11-23T05:12:33;12.70;;;5.40;;
12556;SDS011;6344;49.932;8.308;2022-11-23T05:15:01;8.50;;;4.77;;
12556;SDS011;6344;49.932;8.308;2022-11-23T05:17:32;12.13;;;5.10;;
12556;SDS011;6344;49.932;8.308;2022-11-23T05:19:58;6.33;;;4.57;;
12556;SDS011;6344;49.932;8.308;2022-11-23T05:22:25;8.73;;;4.77;;
12556;SDS011;6344;49.932;8.308;2022-11-23T05:24:53;6.43;;;4.20;;
12556;SDS011;6344;49.932;8.308;2022-11-23T05:27:20;7.27;;;4.47;;
12556;SDS011;6344;49.932;8.308;2022-11-23T05:29:46;7.30;;;4.27;;
12556;SDS011;6344;49.932;8.308;2022-11-23T05:32:15;9.40;;;4.63;;
12556;SDS011;6344;49.932;8.308;2022-11-23T05:34:42;6.77;;;4.20;;
12556;SDS011;6344;49.932;8.308;2022-11-23T05:37:11;5.13;;;4.63;;
12556;SDS011;6344;49.932;8.308;2022-11-23T05:39:37;13.23;;;4.80;;
12556;SDS011;6344;49.932;8.308;2022-11-23T05:42:05;6.70;;;4.07;;
12556;SDS011;6344;49.932;8.308;2022-11-23T05:44:33;8.03;;;4.37;;
12556;SDS011;6344;49.932;8.308;2022-11-23T05:47:05;6.20;;;4.40;;
12556;SDS011;6344;49.932;8.308;2022-11-23T05:49:32;6.37;;;4.33;;
12556;SDS011;6344;49.932;8.308;2022-11-23T05:52:00;5.80;;;4.07;;
12556;SDS011;6344;49.932;8.308;2022-11-23T05:54:30;7.50;;;4.10;;
12556;SDS011;6344;49.932;8.308;2022-11-23T05:56:56;6.43;;;4.60;;
12556;SDS011;6344;49.932;8.308;2022-11-23T05:59:26;7.37;;;4.53;;
12556;SDS011;6344;49.932;8.308;2022-11-23T06:01:53;6.93;;;4.87;;
12556;SDS011;6344;49.932;8.308;2022-11-23T06:04:20;10.40;;;5.23;;
12556;SDS011;6344;49.932;8.308;2022-11-23T06:06:47;9.00;;;5.00;;
12556;SDS011;6344;49.932;8.308;2022-11-23T06:09:14;10.87;;;4.83;;
12556;SDS011;6344;49.932;8.308;2022-11-23T06:11:41;6.83;;;4.90;;
12556;SDS011;6344;49.932;8.308;2022-11-23T06:14:08;7.10;;;4.07;;
12556;SDS011;6344;49.932;8.308;2022-11-23T06:16:38;12.60;;;5.10;;
12556;SDS011;6344;49.932;8.308;2022-11-23T06:19:10;7.90;;;4.40;;
12556;SDS011;6344;49.932;8.308;2022-11-23T06:21:37;8.70;;;4.23;;
12556;SDS011;6344;49.932;8.308;2022-11-23T06:24:04;7.23;;;4.73;;
12556;SDS011;6344;49.932;8.308;2022-11-23T06:26:34;7.03;;;4.50;;
12556;SDS011;6344;49.932;8.308;2022-11-23T06:29:03;7.50;;;4.77;;
12556;SDS011;6344;49.932;8.308;2022-11-23T06:31:35;8.60;;;4.83;;
12556;SDS011;6344;49.932;8.308;2022-11-23T06:34:06;7.90;;;5.13;;
12556;SDS011;6344;49.932;8.308;2022-11-23T06:36:32;8.70;;;5.80;;
12556;SDS011;6344;49.932;8.308;2022-11-23T06:39:02;4.90;;;4.07;;
12556;SDS011;6344;49.932;8.308;2022-11-23T06:41:29;6.70;;;5.67;;
12556;SDS011;6344;49.932;8.308;2022-11-23T06:43:56;12.13;;;5.00;;
12556;SDS011;6344;49.932;8.308;2022-11-23T06:46:26;9.17;;;4.77;;
12556;SDS011;6344;49.932;8.308;2022-11-23T06:48:52;5.23;;;4.80;;
12556;SDS011;6344;49.932;8.308;2022-11-23T06:51:22;8.60;;;5.00;;
12556;SDS011;6344;49.932;8.308;2022-11-23T06:53:49;7.03;;;5.37;;
12556;SDS011;6344;49.932;8.308;2022-11-23T06:56:16;9.93;;;9.10;;
12556;SDS011;6344;49.932;8.308;2022-11-23T06:58:43;17.20;;;15.40;;
12556;SDS011;6344;49.932;8.308;2022-11-23T07:01:11;24.30;;;22.10;;
12556;SDS011;6344;49.932;8.308;2022-11-23T07:03:38;13.73;;;12.53;;
12556;SDS011;6344;49.932;8.308;2022-11-23T07:06:05;8.73;;;4.60;;
12556;SDS011;6344;49.932;8.308;2022-11-23T07:08:43;6.07;;;4.57;;
12556;SDS011;6344;49.932;8.308;2022-11-23T07:11:12;7.20;;;4.40;;
12556;SDS011;6344;49.932;8.308;2022-11-23T07:13:40;4.27;;;3.87;;
12556;SDS011;6344;49.932;8.308;2022-11-23T07:16:09;6.90;;;4.67;;
12556;SDS011;6344;49.932;8.308;2022-11-23T07:18:36;8.13;;;4.77;;
12556;SDS011;6344;49.932;8.308;2022-11-23T07:21:04;11.93;;;5.20;;
12556;SDS011;6344;49.932;8.308;2022-11-23T07:23:33;7.07;;;5.47;;
12556;SDS011;6344;49.932;8.308;2022-11-23T07:26:08;9.27;;;5.60;;
12556;SDS011;6344;49.932;8.308;2022-11-23T07:28:37;8.40;;;5.13;;
12556;SDS011;6344;49.932;8.308;2022-11-23T07:31:05;10.50;;;5.20;;
12556;SDS011;6344;49.932;8.308;2022-11-23T07:33:41;8.70;;;5.70;;
12556;SDS011;6344;49.932;8.308;2022-11-23T07:36:09;10.13;;;5.60;;
12556;SDS011;6344;49.932;8.308;2022-11-23T07:38:41;7.30;;;6.43;;
12556;SDS011;6344;49.932;8.308;2022-11-23T07:41:09;9.63;;;6.00;;
12556;SDS011;6344;49.932;8.308;2022-11-23T07:43:46;11.20;;;6.17;;
12556;SDS011;6344;49.932;8.308;2022-11-23T07:46:13;7.03;;;5.73;;
12556;SDS011;6344;49.932;8.308;2022-11-23T07:48:41;11.33;;;6.37;;
12556;SDS011;6344;49.932;8.308;2022-11-23T07:51:11;9.70;;;6.07;;
12556;SDS011;6344;49.932;8.308;2022-11-23T07:53:37;8.73;;;6.43;;
12556;SDS011;6344;49.932;8.308;2022-11-23T07:56:08;10.13;;;6.00;;
12556;SDS011;6344;49.932;8.308;2022-11-23T07:58:35;13.07;;;7.87;;
12556;SDS011;6344;49.932;8.308;2022-11-23T08:01:05;9.50;;;6.57;;
12556;SDS011;6344;49.932;8.308;2022-11-23T08:03:35;7.80;;;6.50;;
12556;SDS011;6344;49.932;8.308;2022-11-23T08:06:08;9.27;;;6.43;;
12556;SDS011;6344;49.932;8.308;2022-11-23T08:08:38;9.10;;;7.53;;
12556;SDS011;6344;49.932;8.308;2022-11-23T08:11:07;11.73;;;6.77;;
12556;SDS011;6344;49.932;8.308;2022-11-23T08:13:41;6.80;;;5.00;;
12556;SDS011;6344;49.932;8.308;2022-11-23T08:16:10;9.83;;;5.83;;
12556;SDS011;6344;49.932;8.308;2022-11-23T08:18:36;10.90;;;6.50;;
12556;SDS011;6344;49.932;8.308;2022-11-23T08:21:05;10.33;;;6.30;;
12556;SDS011;6344;49.932;8.308;2022-11-23T08:23:32;8.67;;;5.43;;
12556;SDS011;6344;49.932;8.308;2022-11-23T08:26:01;7.83;;;6.17;;
12556;SDS011;6344;49.932;8.308;2022-11-23T08:28:37;10.30;;;7.80;;
12556;SDS011;6344;49.932;8.308;2022-11-23T08:31:05;10.53;;;8.10;;
12556;SDS011;6344;49.932;8.308;2022-11-23T08:33:37;7.20;;;6.47;;
12556;SDS011;6344;49.932;8.308;2022-11-23T08:36:04;9.37;;;6.23;;
12556;SDS011;6344;49.932;8.308;2022-11-23T08:38:32;15.43;;;7.53;;
12556;SDS011;6344;49.932;8.308;2022-11-23T08:41:05;6.67;;;5.97;;
12556;SDS011;6344;49.932;8.308;2022-11-23T08:43:35;13.77;;;10.07;;
12556;SDS011;6344;49.932;8.308;2022-11-23T08:46:02;10.40;;;6.63;;
12556;SDS011;6344;49.932;8.308;2022-11-23T08:48:29;11.27;;;6.00;;
12556;SDS011;6344;49.932;8.308;2022-11-23T08:51:10;6.30;;;5.43;;
12556;SDS011;6344;49.932;8.308;2022-11-23T08:53:48;5.97;;;4.90;;
12556;SDS011;6344;49.932;8.308;2022-11-23T08:56:14;7.47;;;5.43;;
12556;SDS011;6344;49.932;8.308;2022-11-23T08:58:44;5.80;;;4.10;;
12556;SDS011;6344;49.932;8.308;2022-11-23T09:01:13;9.47;;;5.30;;
12556;SDS011;6344;49.932;8.308;2022-11-23T09:03:43;9.37;;;5.00;;
12556;SDS011;6344;49.932;8.308;2022-11-23T09:06:12;7.07;;;5.10;;
12556;SDS011;6344;49.932;8.308;2022-11-23T09:08:41;8.10;;;5.13;;
12556;SDS011;6344;49.932;8.308;2022-11-23T09:11:12;10.50;;;5.00;;
12556;SDS011;6344;49.932;8.308;2022-11-23T09:13:39;6.53;;;4.70;;
12556;SDS011;6344;49.932;8.308;2022-11-23T09:16:08;10.80;;;5.00;;
12556;SDS011;6344;49.932;8.308;2022-11-23T09:18:35;10.90;;;4.70;;
12556;SDS011;6344;49.932;8.308;2022-11-23T09:21:02;7.00;;;3.73;;
12556;SDS011;6344;49.932;8.308;2022-11-23T09:23:32;10.63;;;4.13;;
12556;SDS011;6344;49.932;8.308;2022-11-23T09:26:02;9.63;;;3.77;;
12556;SDS011;6344;49.932;8.308;2022-11-23T09:28:42;6.30;;;3.47;;
12556;SDS011;6344;49.932;8.308;2022-11-23T09:31:10;6.40;;;4.07;;
12556;SDS011;6344;49.932;8.308;2022-11-23T09:33:37;8.00;;;4.50;;
12556;SDS011;6344;49.932;8.308;2022-11-23T09:36:03;6.80;;;3.30;;
12556;SDS011;6344;49.932;8.308;2022-11-23T09:38:30;4.77;;;3.23;;
12556;SDS011;6344;49.932;8.308;2022-11-23T09:41:05;7.97;;;4.90;;
12556;SDS011;6344;49.932;8.308;2022-11-23T09:43:48;7.07;;;4.63;;
12556;SDS011;6344;49.932;8.308;2022-11-23T09:46:24;9.00;;;4.80;;
12556;SDS011;6344;49.932;8.308;2022-11-23T09:49:10;6.77;;;5.17;;
12556;SDS011;6344;49.932;8.308;2022-11-23T09:51:39;6.30;;;4.93;;
12556;SDS011;6344;49.932;8.308;2022-11-23T09:54:12;9.27;;;5.00;;
12556;SDS011;6344;49.932;8.308;2022-11-23T09:56:49;4.60;;;4.20;;
12556;SDS011;6344;49.932;8.308;2022-11-23T09:59:21;8.50;;;4.50;;
12556;SDS011;6344;49.932;8.308;2022-11-23T10:02:00;4.83;;;4.30;;
12556;SDS011;6344;49.932;8.308;2022-11-23T10:04:28;16.07;;;4.73;;
12556;SDS011;6344;49.932;8.308;2022-11-23T10:07:02;5.33;;;4.40;;
12556;SDS011;6344;49.932;8.308;2022-11-23T10:09:44;7.07;;;5.23;;
12556;SDS011;6344;49.932;8.308;2022-11-23T10:12:25;6.80;;;4.20;;
12556;SDS011;6344;49.932;8.308;2022-11-23T10:15:10;4.93;;;3.90;;
12556;SDS011;6344;49.932;8.308;2022-11-23T10:17:46;5.83;;;3.83;;
12556;SDS011;6344;49.932;8.308;2022-11-23T10:20:32;5.90;;;3.67;;
12556;SDS011;6344;49.932;8.308;2022-11-23T10:23:11;3.40;;;2.90;;
12556;SDS011;6344;49.932;8.308;2022-11-23T10:25:45;5.43;;;3.10;;
12556;SDS011;6344;49.932;8.308;2022-11-23T10:28:29;6.87;;;3.60;;
12556;SDS011;6344;49.932;8.308;2022-11-23T10:31:00;7.53;;;3.33;;
12556;SDS011;6344;49.932;8.308;2022-11-23T10:33:39;8.80;;;3.23;;
12556;SDS011;6344;49.932;8.308;2022-11-23T10:36:14;9.20;;;4.23;;
12556;SDS011;6344;49.932;8.308;2022-11-23T10:38:42;9.73;;;3.93;;
12556;SDS011;6344;49.932;8.308;2022-11-23T10:41:12;4.00;;;3.60;;
12556;SDS011;6344;49.932;8.308;2022-11-23T10:43:43;5.97;;;3.90;;
12556;SDS011;6344;49.932;8.308;2022-11-23T10:46:26;3.87;;;2.70;;
12556;SDS011;6344;49.932;8.308;2022-11-23T10:49:07;7.47;;;3.60;;
12556;SDS011;6344;49.932;8.308;2022-11-23T10:51:39;4.40;;;3.33;;
12556;SDS011;6344;49.932;8.308;2022-11-23T10:54:16;6.73;;;3.30;;
12556;SDS011;6344;49.932;8.308;2022-11-23T10:56:46;6.93;;;3.00;;
12556;SDS011;6344;49.932;8.308;2022-11-23T11:02:09;5.40;;;3.30;;
12556;SDS011;6344;49.932;8.308;2022-11-23T11:04:43;5.40;;;3.40;;
12556;SDS011;6344;49.932;8.308;2022-11-23T11:07:25;4.60;;;2.97;;
12556;SDS011;6344;49.932;8.308;2022-11-23T11:09:56;3.80;;;2.77;;
12556;SDS011;6344;49.932;8.308;2022-11-23T11:12:24;6.40;;;3.40;;
12556;SDS011;6344;49.932;8.308;2022-11-23T11:14:55;3.97;;;2.60;;
12556;SDS011;6344;49.932;8.308;2022-11-23T11:17:27;4.10;;;3.03;;
12556;SDS011;6344;49.932;8.308;2022-11-23T11:19:56;8.47;;;3.27;;
12556;SDS011;6344;49.932;8.308;2022-11-23T11:22:24;6.40;;;3.83;;
12556;SDS011;6344;49.932;8.308;2022-11-23T11:25:00;4.03;;;2.40;;
12556;SDS011;6344;49.932;8.308;2022-11-23T11:27:29;6.23;;;3.77;;
12556;SDS011;6344;49.932;8.308;2022-11-23T11:29:57;3.23;;;2.70;;
12556;SDS011;6344;49.932;8.308;2022-11-23T11:32:31;6.10;;;3.40;;
12556;SDS011;6344;49.932;8.308;2022-11-23T11:35:12;3.53;;;2.27;;
12556;SDS011;6344;49.932;8.308;2022-11-23T11:37:47;9.87;;;5.23;;
12556;SDS011;6344;49.932;8.308;2022-11-23T11:40:17;7.93;;;4.30;;
12556;SDS011;6344;49.932;8.308;2022-11-23T11:42:49;8.03;;;3.80;;
12556;SDS011;6344;49.932;8.308;2022-11-23T11:45:32;4.37;;;2.90;;
12556;SDS011;6344;49.932;8.308;2022-11-23T11:48:06;3.53;;;2.50;;
12556;SDS011;6344;49.932;8.308;2022-11-23T11:50:37;6.20;;;3.10;;
12556;SDS011;6344;49.932;8.308;2022-11-23T11:53:16;3.70;;;2.57;;
12556;SDS011;6344;49.932;8.308;2022-11-23T11:55:48;5.73;;;2.60;;
12556;SDS011;6344;49.932;8.308;2022-11-23T11:58:18;4.80;;;2.30;;
12556;SDS011;6344;49.932;8.308;2022-11-23T12:00:52;6.97;;;2.03;;
12556;SDS011;6344;49.932;8.308;2022-11-23T12:03:26;4.93;;;2.30;;
12556;SDS011;6344;49.932;8.308;2022-11-23T12:06:15;6.20;;;3.27;;
12556;SDS011;6344;49.932;8.308;2022-11-23T12:08:48;4.30;;;2.70;;
12556;SDS011;6344;49.932;8.308;2022-11-23T12:11:22;3.90;;;3.07;;
12556;SDS011;6344;49.932;8.308;2022-11-23T12:13:49;4.90;;;2.70;;
12556;SDS011;6344;49.932;8.308;2022-11-23T12:16:30;7.60;;;2.80;;
12556;SDS011;6344;49.932;8.308;2022-11-23T12:19:08;8.70;;;2.23;;
12556;SDS011;6344;49.932;8.308;2022-11-23T12:21:48;6.30;;;2.23;;
12556;SDS011;6344;49.932;8.308;2022-11-23T12:24:33;3.90;;;2.20;;
12556;SDS011;6344;49.932;8.308;2022-11-23T12:27:21;4.57;;;2.17;;
12556;SDS011;6344;49.932;8.308;2022-11-23T12:30:20;4.60;;;2.70;;
12556;SDS011;6344;49.932;8.308;2022-11-23T12:33:04;3.50;;;2.10;;
12556;SDS011;6344;49.932;8.308;2022-11-23T12:36:01;5.60;;;2.20;;
12556;SDS011;6344;49.932;8.308;2022-11-23T12:38:46;5.63;;;2.27;;
12556;SDS011;6344;49.932;8.308;2022-11-23T12:41:21;4.73;;;2.63;;
12556;SDS011;6344;49.932;8.308;2022-11-23T12:44:08;6.90;;;2.30;;
12556;SDS011;6344;49.932;8.308;2022-11-23T12:46:49;2.80;;;2.40;;
12556;SDS011;6344;49.932;8.308;2022-11-23T12:49:29;3.50;;;2.10;;
12556;SDS011;6344;49.932;8.308;2022-11-23T12:52:06;6.10;;;2.93;;
12556;SDS011;6344;49.932;8.308;2022-11-23T12:54:55;3.60;;;2.50;;
12556;SDS011;6344;49.932;8.308;2022-11-23T12:57:30;5.80;;;3.40;;
12556;SDS011;6344;49.932;8.308;2022-11-23T13:00:03;3.10;;;2.70;;
12556;SDS011;6344;49.932;8.308;2022-11-23T13:02:48;3.77;;;3.00;;
12556;SDS011;6344;49.932;8.308;2022-11-23T13:08:43;5.33;;;2.70;;
12556;SDS011;6344;49.932;8.308;2022-11-23T13:11:30;4.90;;;3.07;;
12556;SDS011;6344;49.932;8.308;2022-11-23T13:14:12;7.10;;;2.73;;
12556;SDS011;6344;49.932;8.308;2022-11-23T13:16:54;4.43;;;2.60;;
12556;SDS011;6344;49.932;8.308;2022-11-23T13:22:46;3.40;;;2.43;;
12556;SDS011;6344;49.932;8.308;2022-11-23T13:25:18;6.73;;;2.40;;
12556;SDS011;6344;49.932;8.308;2022-11-23T13:28:03;3.23;;;2.13;;
12556;SDS011;6344;49.932;8.308;2022-11-23T13:30:48;4.40;;;2.80;;
12556;SDS011;6344;49.932;8.308;2022-11-23T13:33:52;9.73;;;2.80;;
12556;SDS011;6344;49.932;8.308;2022-11-23T13:36:33;8.00;;;2.77;;
12556;SDS011;6344;49.932;8.308;2022-11-23T13:39:58;5.40;;;2.50;;
12556;SDS011;6344;49.932;8.308;2022-11-23T13:42:17;3.03;;;1.90;;
12556;SDS011;6344;49.932;8.308;2022-11-23T13:44:48;10.27;;;6.33;;
12556;SDS011;6344;49.932;8.308;2022-11-23T13:48:11;2.60;;;2.40;;
12556;SDS011;6344;49.932;8.308;2022-11-23T13:50:55;4.23;;;2.33;;
12556;SDS011;6344;49.932;8.308;2022-11-23T13:53:25;6.30;;;2.53;;
12556;SDS011;6344;49.932;8.308;2022-11-23T13:55:55;6.10;;;2.50;;
12556;SDS011;6344;49.932;8.308;2022-11-23T13:58:37;9.07;;;2.60;;
12556;SDS011;6344;49.932;8.308;2022-11-23T14:01:07;6.40;;;2.80;;
12556;SDS011;6344;49.932;8.308;2022-11-23T14:03:49;7.53;;;2.90;;
12556;SDS011;6344;49.932;8.308;2022-11-23T14:06:21;3.97;;;3.10;;
12556;SDS011;6344;49.932;8.308;2022-11-23T14:09:00;8.10;;;3.40;;
12556;SDS011;6344;49.932;8.308;2022-11-23T14:11:36;4.90;;;2.90;;
12556;SDS011;6344;49.932;8.308;2022-11-23T14:14:15;3.23;;;2.87;;
12556;SDS011;6344;49.932;8.308;2022-11-23T14:16:55;4.37;;;2.93;;
12556;SDS011;6344;49.932;8.308;2022-11-23T14:19:47;4.90;;;2.63;;
12556;SDS011;6344;49.932;8.308;2022-11-23T14:22:33;5.60;;;3.03;;
12556;SDS011;6344;49.932;8.308;2022-11-23T14:25:19;6.50;;;3.80;;
12556;SDS011;6344;49.932;8.308;2022-11-23T14:27:58;5.53;;;2.80;;
12556;SDS011;6344;49.932;8.308;2022-11-23T14:30:41;8.77;;;3.27;;
12556;SDS011;6344;49.932;8.308;2022-11-23T14:33:21;3.97;;;2.47;;
12556;SDS011;6344;49.932;8.308;2022-11-23T14:36:08;4.30;;;2.60;;
12556;SDS011;6344;49.932;8.308;2022-11-23T14:38:53;7.53;;;3.03;;
12556;SDS011;6344;49.932;8.308;2022-11-23T14:41:31;4.73;;;2.43;;
12556;SDS011;6344;49.932;8.308;2022-11-23T14:44:01;3.53;;;2.60;;
12556;SDS011;6344;49.932;8.308;2022-11-23T14:46:31;5.17;;;3.00;;
12556;SDS011;6344;49.932;8.308;2022-11-23T14:49:05;4.83;;;3.07;;
12556;SDS011;6344;49.932;8.308;2022-11-23T14:51:40;6.33;;;2.60;;
12556;SDS011;6344;49.932;8.308;2022-11-23T14:54:09;5.63;;;3.00;;
12556;SDS011;6344;49.932;8.308;2022-11-23T14:56:40;10.17;;;3.50;;
12556;SDS011;6344;49.932;8.308;2022-11-23T14:59:14;6.57;;;3.73;;
12556;SDS011;6344;49.932;8.308;2022-11-23T15:01:49;5.73;;;3.63;;
12556;SDS011;6344;49.932;8.308;2022-11-23T15:04:25;9.03;;;4.00;;
12556;SDS011;6344;49.932;8.308;2022-11-23T15:06:59;9.40;;;4.37;;
12556;SDS011;6344;49.932;8.308;2022-11-23T15:09:33;8.50;;;3.63;;
12556;SDS011;6344;49.932;8.308;2022-11-23T15:12:16;9.40;;;4.67;;
12556;SDS011;6344;49.932;8.308;2022-11-23T15:14:52;10.33;;;4.13;;
12556;SDS011;6344;49.932;8.308;2022-11-23T15:17:22;5.07;;;4.27;;
12556;SDS011;6344;49.932;8.308;2022-11-23T15:19:55;8.50;;;5.30;;
12556;SDS011;6344;49.932;8.308;2022-11-23T15:22:37;8.13;;;7.03;;
12556;SDS011;6344;49.932;8.308;2022-11-23T15:25:10;7.73;;;4.40;;
12556;SDS011;6344;49.932;8.308;2022-11-23T15:27:41;7.30;;;5.20;;
12556;SDS011;6344;49.932;8.308;2022-11-23T15:30:14;7.43;;;4.43;;
12556;SDS011;6344;49.932;8.308;2022-11-23T15:32:47;6.13;;;5.10;;
12556;SDS011;6344;49.932;8.308;2022-11-23T15:35:27;11.27;;;8.27;;
12556;SDS011;6344;49.932;8.308;2022-11-23T15:37:58;13.03;;;8.07;;
12556;SDS011;6344;49.932;8.308;2022-11-23T15:40:28;8.60;;;7.70;;
12556;SDS011;6344;49.932;8.308;2022-11-23T15:42:59;7.83;;;6.87;;
12556;SDS011;6344;49.932;8.308;2022-11-23T15:45:31;9.13;;;5.80;;